<?xml version="1.0" encoding="UTF-8" standalone="no" ?>
<gpx xmlns="http://www.topografix.com/GPX/1/1" xmlns:xsi="http://www.w3.org/2001/XMLSchema-instance" xsi:schemaLocation="http://www.topografix.com/GPX/1/1 http://www.topografix.com/GPX/1/1/gpx.xsd" version="1.1" creator="VisuGPX - https://www.visugpx.com">
  <metadata>
    <name>CANADA - RAQUETTES - Randonnée aux flambeaux par le refuge de la Halte</name>
    <desc><![CDATA[domaine de la station touristique Duchesnay]]></desc>
  </metadata>
  <wpt lat="46.86914" lon="-71.64209">
    <ele>194</ele>
    <name><![CDATA[Base de départ]]></name>
    <desc><![CDATA[22-MAR-16 12:54:15]]></desc>
    <cmt><![CDATA[22-MAR-16 12:54:15]]></cmt>
  </wpt>
  <wpt lat="46.8696" lon="-71.64299">
    <name><![CDATA[Horizon]]></name>
  </wpt>
  <wpt lat="46.88401" lon="-71.65311">
    <name><![CDATA[refuge de la Halte]]></name>
  </wpt>
  <trk>
    <name><![CDATA[ACTIVE LOG 008]]></name>
    <trkseg>
      <trkpt lat="46.86928" lon="-71.64188">
        <ele>189.03637695312</ele>
        <time>2016-03-25T13:42:24Z</time>
      </trkpt>
      <trkpt lat="46.86928" lon="-71.64187">
        <ele>188.07507324219</ele>
        <time>2016-03-25T13:42:26Z</time>
      </trkpt>
      <trkpt lat="46.86928" lon="-71.64191">
        <ele>188.55578613281</ele>
        <time>2016-03-25T13:42:43Z</time>
      </trkpt>
      <trkpt lat="46.86931" lon="-71.6419">
        <ele>185.67175292969</ele>
        <time>2016-03-25T13:43:08Z</time>
      </trkpt>
      <trkpt lat="46.86928" lon="-71.64189">
        <ele>185.19116210938</ele>
        <time>2016-03-25T13:43:31Z</time>
      </trkpt>
      <trkpt lat="46.86929" lon="-71.64189">
        <ele>190.47839355469</ele>
        <time>2016-03-25T13:43:32Z</time>
      </trkpt>
      <trkpt lat="46.86929" lon="-71.6419">
        <ele>187.59436035156</ele>
        <time>2016-03-25T13:43:33Z</time>
      </trkpt>
      <trkpt lat="46.86939" lon="-71.64205">
        <ele>189.99768066406</ele>
        <time>2016-03-25T13:43:49Z</time>
      </trkpt>
      <trkpt lat="46.86949" lon="-71.64226">
        <ele>189.99768066406</ele>
        <time>2016-03-25T13:44:07Z</time>
      </trkpt>
      <trkpt lat="46.86957" lon="-71.64251">
        <ele>190.958984375</ele>
        <time>2016-03-25T13:44:26Z</time>
      </trkpt>
      <trkpt lat="46.86962" lon="-71.64273">
        <ele>193.3623046875</ele>
        <time>2016-03-25T13:44:43Z</time>
      </trkpt>
      <trkpt lat="46.86962" lon="-71.64293">
        <ele>194.80432128906</ele>
        <time>2016-03-25T13:44:57Z</time>
      </trkpt>
      <trkpt lat="46.86964" lon="-71.64321">
        <ele>194.80432128906</ele>
        <time>2016-03-25T13:45:17Z</time>
      </trkpt>
      <trkpt lat="46.86971" lon="-71.64333">
        <ele>195.765625</ele>
        <time>2016-03-25T13:45:30Z</time>
      </trkpt>
      <trkpt lat="46.86978" lon="-71.64345">
        <ele>197.68823242188</ele>
        <time>2016-03-25T13:45:50Z</time>
      </trkpt>
      <trkpt lat="46.86986" lon="-71.6435">
        <ele>199.61083984375</ele>
        <time>2016-03-25T13:46:03Z</time>
      </trkpt>
      <trkpt lat="46.87001" lon="-71.64356">
        <ele>201.53356933594</ele>
        <time>2016-03-25T13:46:21Z</time>
      </trkpt>
      <trkpt lat="46.8701" lon="-71.64376">
        <ele>202.01428222656</ele>
        <time>2016-03-25T13:46:39Z</time>
      </trkpt>
      <trkpt lat="46.87015" lon="-71.64397">
        <ele>202.01428222656</ele>
        <time>2016-03-25T13:46:55Z</time>
      </trkpt>
      <trkpt lat="46.87015" lon="-71.64398">
        <ele>202.01428222656</ele>
        <time>2016-03-25T13:46:56Z</time>
      </trkpt>
      <trkpt lat="46.87019" lon="-71.64421">
        <ele>202.01428222656</ele>
        <time>2016-03-25T13:47:13Z</time>
      </trkpt>
      <trkpt lat="46.87023" lon="-71.64447">
        <ele>203.45617675781</ele>
        <time>2016-03-25T13:47:31Z</time>
      </trkpt>
      <trkpt lat="46.87027" lon="-71.64468">
        <ele>203.45617675781</ele>
        <time>2016-03-25T13:47:46Z</time>
      </trkpt>
      <trkpt lat="46.87032" lon="-71.64492">
        <ele>205.85949707031</ele>
        <time>2016-03-25T13:48:03Z</time>
      </trkpt>
      <trkpt lat="46.87032" lon="-71.64496">
        <ele>203.93688964844</ele>
        <time>2016-03-25T13:48:06Z</time>
      </trkpt>
      <trkpt lat="46.87032" lon="-71.64519">
        <ele>204.41748046875</ele>
        <time>2016-03-25T13:48:21Z</time>
      </trkpt>
      <trkpt lat="46.87033" lon="-71.64528">
        <ele>204.89807128906</ele>
        <time>2016-03-25T13:48:27Z</time>
      </trkpt>
      <trkpt lat="46.87033" lon="-71.64531">
        <ele>202.97546386719</ele>
        <time>2016-03-25T13:48:29Z</time>
      </trkpt>
      <trkpt lat="46.87029" lon="-71.64542">
        <ele>202.49487304688</ele>
        <time>2016-03-25T13:48:42Z</time>
      </trkpt>
      <trkpt lat="46.87029" lon="-71.64542">
        <ele>203.93688964844</ele>
        <time>2016-03-25T13:48:44Z</time>
      </trkpt>
      <trkpt lat="46.87029" lon="-71.64543">
        <ele>205.85949707031</ele>
        <time>2016-03-25T13:48:47Z</time>
      </trkpt>
      <trkpt lat="46.87029" lon="-71.64543">
        <ele>202.49487304688</ele>
        <time>2016-03-25T13:48:48Z</time>
      </trkpt>
      <trkpt lat="46.87031" lon="-71.64544">
        <ele>204.41748046875</ele>
        <time>2016-03-25T13:48:51Z</time>
      </trkpt>
      <trkpt lat="46.87034" lon="-71.64546">
        <ele>205.85949707031</ele>
        <time>2016-03-25T13:48:56Z</time>
      </trkpt>
      <trkpt lat="46.87034" lon="-71.64548">
        <ele>204.89807128906</ele>
        <time>2016-03-25T13:48:58Z</time>
      </trkpt>
      <trkpt lat="46.87039" lon="-71.6456">
        <ele>205.37878417969</ele>
        <time>2016-03-25T13:49:10Z</time>
      </trkpt>
      <trkpt lat="46.87047" lon="-71.64578">
        <ele>205.85949707031</ele>
        <time>2016-03-25T13:49:25Z</time>
      </trkpt>
      <trkpt lat="46.87048" lon="-71.64605">
        <ele>206.34008789062</ele>
        <time>2016-03-25T13:49:42Z</time>
      </trkpt>
      <trkpt lat="46.87052" lon="-71.6463">
        <ele>206.82067871094</ele>
        <time>2016-03-25T13:49:58Z</time>
      </trkpt>
      <trkpt lat="46.87055" lon="-71.64656">
        <ele>205.37878417969</ele>
        <time>2016-03-25T13:50:14Z</time>
      </trkpt>
      <trkpt lat="46.87057" lon="-71.64678">
        <ele>203.45617675781</ele>
        <time>2016-03-25T13:50:28Z</time>
      </trkpt>
      <trkpt lat="46.87063" lon="-71.64689">
        <ele>207.30139160156</ele>
        <time>2016-03-25T13:50:38Z</time>
      </trkpt>
      <trkpt lat="46.87068" lon="-71.64704">
        <ele>207.78210449219</ele>
        <time>2016-03-25T13:50:51Z</time>
      </trkpt>
      <trkpt lat="46.87072" lon="-71.6471">
        <ele>208.74340820312</ele>
        <time>2016-03-25T13:50:56Z</time>
      </trkpt>
      <trkpt lat="46.87083" lon="-71.64721">
        <ele>210.18542480469</ele>
        <time>2016-03-25T13:51:10Z</time>
      </trkpt>
      <trkpt lat="46.87093" lon="-71.64735">
        <ele>211.62744140625</ele>
        <time>2016-03-25T13:51:24Z</time>
      </trkpt>
      <trkpt lat="46.87096" lon="-71.6474">
        <ele>212.58862304688</ele>
        <time>2016-03-25T13:51:28Z</time>
      </trkpt>
      <trkpt lat="46.871" lon="-71.64746">
        <ele>212.58862304688</ele>
        <time>2016-03-25T13:51:33Z</time>
      </trkpt>
      <trkpt lat="46.8711" lon="-71.64771">
        <ele>212.58862304688</ele>
        <time>2016-03-25T13:51:51Z</time>
      </trkpt>
      <trkpt lat="46.87117" lon="-71.64794">
        <ele>212.58862304688</ele>
        <time>2016-03-25T13:52:08Z</time>
      </trkpt>
      <trkpt lat="46.87129" lon="-71.64815">
        <ele>212.58862304688</ele>
        <time>2016-03-25T13:52:26Z</time>
      </trkpt>
      <trkpt lat="46.87135" lon="-71.64821">
        <ele>213.55004882812</ele>
        <time>2016-03-25T13:52:34Z</time>
      </trkpt>
      <trkpt lat="46.87141" lon="-71.64827">
        <ele>212.10803222656</ele>
        <time>2016-03-25T13:52:43Z</time>
      </trkpt>
      <trkpt lat="46.87149" lon="-71.64836">
        <ele>211.62744140625</ele>
        <time>2016-03-25T13:52:54Z</time>
      </trkpt>
      <trkpt lat="46.87163" lon="-71.6485">
        <ele>212.58862304688</ele>
        <time>2016-03-25T13:53:08Z</time>
      </trkpt>
      <trkpt lat="46.87176" lon="-71.64859">
        <ele>212.58862304688</ele>
        <time>2016-03-25T13:53:20Z</time>
      </trkpt>
      <trkpt lat="46.87184" lon="-71.64871">
        <ele>212.58862304688</ele>
        <time>2016-03-25T13:53:37Z</time>
      </trkpt>
      <trkpt lat="46.87187" lon="-71.64876">
        <ele>212.58862304688</ele>
        <time>2016-03-25T13:53:52Z</time>
      </trkpt>
      <trkpt lat="46.87196" lon="-71.64878">
        <ele>213.0693359375</ele>
        <time>2016-03-25T13:54:02Z</time>
      </trkpt>
      <trkpt lat="46.87212" lon="-71.64889">
        <ele>212.10803222656</ele>
        <time>2016-03-25T13:54:19Z</time>
      </trkpt>
      <trkpt lat="46.87221" lon="-71.64894">
        <ele>211.62744140625</ele>
        <time>2016-03-25T13:54:31Z</time>
      </trkpt>
      <trkpt lat="46.87229" lon="-71.64898">
        <ele>210.18542480469</ele>
        <time>2016-03-25T13:54:39Z</time>
      </trkpt>
      <trkpt lat="46.87246" lon="-71.64908">
        <ele>209.22412109375</ele>
        <time>2016-03-25T13:54:51Z</time>
      </trkpt>
      <trkpt lat="46.87265" lon="-71.64918">
        <ele>207.30139160156</ele>
        <time>2016-03-25T13:55:06Z</time>
      </trkpt>
      <trkpt lat="46.87277" lon="-71.64937">
        <ele>205.37878417969</ele>
        <time>2016-03-25T13:55:21Z</time>
      </trkpt>
      <trkpt lat="46.87285" lon="-71.64941">
        <ele>205.37878417969</ele>
        <time>2016-03-25T13:55:34Z</time>
      </trkpt>
      <trkpt lat="46.87297" lon="-71.64942">
        <ele>205.37878417969</ele>
        <time>2016-03-25T13:55:48Z</time>
      </trkpt>
      <trkpt lat="46.87309" lon="-71.64941">
        <ele>205.37878417969</ele>
        <time>2016-03-25T13:56:03Z</time>
      </trkpt>
      <trkpt lat="46.87323" lon="-71.64938">
        <ele>205.37878417969</ele>
        <time>2016-03-25T13:56:15Z</time>
      </trkpt>
      <trkpt lat="46.87327" lon="-71.64934">
        <ele>205.85949707031</ele>
        <time>2016-03-25T13:56:19Z</time>
      </trkpt>
      <trkpt lat="46.87334" lon="-71.64926">
        <ele>205.85949707031</ele>
        <time>2016-03-25T13:56:26Z</time>
      </trkpt>
      <trkpt lat="46.87346" lon="-71.64899">
        <ele>207.78210449219</ele>
        <time>2016-03-25T13:56:45Z</time>
      </trkpt>
      <trkpt lat="46.87355" lon="-71.64885">
        <ele>206.34008789062</ele>
        <time>2016-03-25T13:57:00Z</time>
      </trkpt>
      <trkpt lat="46.87365" lon="-71.64884">
        <ele>204.89807128906</ele>
        <time>2016-03-25T13:57:12Z</time>
      </trkpt>
      <trkpt lat="46.8738" lon="-71.64883">
        <ele>204.41748046875</ele>
        <time>2016-03-25T13:57:24Z</time>
      </trkpt>
      <trkpt lat="46.87396" lon="-71.64877">
        <ele>204.89807128906</ele>
        <time>2016-03-25T13:57:40Z</time>
      </trkpt>
      <trkpt lat="46.87402" lon="-71.64871">
        <ele>205.85949707031</ele>
        <time>2016-03-25T13:57:58Z</time>
      </trkpt>
      <trkpt lat="46.8741" lon="-71.64871">
        <ele>205.37878417969</ele>
        <time>2016-03-25T13:58:14Z</time>
      </trkpt>
      <trkpt lat="46.87415" lon="-71.64866">
        <ele>206.34008789062</ele>
        <time>2016-03-25T13:58:35Z</time>
      </trkpt>
      <trkpt lat="46.87418" lon="-71.64863">
        <ele>205.37878417969</ele>
        <time>2016-03-25T13:58:48Z</time>
      </trkpt>
      <trkpt lat="46.87431" lon="-71.64861">
        <ele>205.37878417969</ele>
        <time>2016-03-25T13:59:01Z</time>
      </trkpt>
      <trkpt lat="46.87437" lon="-71.64859">
        <ele>205.37878417969</ele>
        <time>2016-03-25T13:59:05Z</time>
      </trkpt>
      <trkpt lat="46.87447" lon="-71.64846">
        <ele>204.41748046875</ele>
        <time>2016-03-25T13:59:20Z</time>
      </trkpt>
      <trkpt lat="46.87435" lon="-71.64851">
        <ele>205.37878417969</ele>
        <time>2016-03-25T13:59:40Z</time>
      </trkpt>
      <trkpt lat="46.87428" lon="-71.64851">
        <ele>204.41748046875</ele>
        <time>2016-03-25T13:59:47Z</time>
      </trkpt>
      <trkpt lat="46.87412" lon="-71.64854">
        <ele>205.85949707031</ele>
        <time>2016-03-25T14:00:02Z</time>
      </trkpt>
      <trkpt lat="46.87406" lon="-71.64861">
        <ele>205.85949707031</ele>
        <time>2016-03-25T14:00:15Z</time>
      </trkpt>
      <trkpt lat="46.87404" lon="-71.6487">
        <ele>205.85949707031</ele>
        <time>2016-03-25T14:00:40Z</time>
      </trkpt>
      <trkpt lat="46.87403" lon="-71.6487">
        <ele>205.37878417969</ele>
        <time>2016-03-25T14:00:57Z</time>
      </trkpt>
      <trkpt lat="46.87406" lon="-71.64874">
        <ele>204.89807128906</ele>
        <time>2016-03-25T14:01:15Z</time>
      </trkpt>
      <trkpt lat="46.87409" lon="-71.64876">
        <ele>204.41748046875</ele>
        <time>2016-03-25T14:01:18Z</time>
      </trkpt>
      <trkpt lat="46.87421" lon="-71.64887">
        <ele>204.41748046875</ele>
        <time>2016-03-25T14:01:32Z</time>
      </trkpt>
      <trkpt lat="46.87435" lon="-71.64904">
        <ele>204.41748046875</ele>
        <time>2016-03-25T14:01:49Z</time>
      </trkpt>
      <trkpt lat="46.8744" lon="-71.64918">
        <ele>204.89807128906</ele>
        <time>2016-03-25T14:02:01Z</time>
      </trkpt>
      <trkpt lat="46.87444" lon="-71.64924">
        <ele>204.89807128906</ele>
        <time>2016-03-25T14:02:06Z</time>
      </trkpt>
      <trkpt lat="46.87453" lon="-71.64936">
        <ele>205.85949707031</ele>
        <time>2016-03-25T14:02:22Z</time>
      </trkpt>
      <trkpt lat="46.87462" lon="-71.64945">
        <ele>206.34008789062</ele>
        <time>2016-03-25T14:02:34Z</time>
      </trkpt>
      <trkpt lat="46.87476" lon="-71.64945">
        <ele>205.85949707031</ele>
        <time>2016-03-25T14:02:45Z</time>
      </trkpt>
      <trkpt lat="46.87484" lon="-71.64939">
        <ele>205.85949707031</ele>
        <time>2016-03-25T14:02:58Z</time>
      </trkpt>
      <trkpt lat="46.87497" lon="-71.64933">
        <ele>203.93688964844</ele>
        <time>2016-03-25T14:03:10Z</time>
      </trkpt>
      <trkpt lat="46.87497" lon="-71.64936">
        <ele>204.41748046875</ele>
        <time>2016-03-25T14:03:29Z</time>
      </trkpt>
      <trkpt lat="46.87504" lon="-71.64932">
        <ele>204.89807128906</ele>
        <time>2016-03-25T14:03:34Z</time>
      </trkpt>
      <trkpt lat="46.8752" lon="-71.64911">
        <ele>204.89807128906</ele>
        <time>2016-03-25T14:03:51Z</time>
      </trkpt>
      <trkpt lat="46.87526" lon="-71.64911">
        <ele>202.97546386719</ele>
        <time>2016-03-25T14:03:57Z</time>
      </trkpt>
      <trkpt lat="46.87537" lon="-71.64915">
        <ele>201.05285644531</ele>
        <time>2016-03-25T14:04:10Z</time>
      </trkpt>
      <trkpt lat="46.87551" lon="-71.64904">
        <ele>200.09167480469</ele>
        <time>2016-03-25T14:04:24Z</time>
      </trkpt>
      <trkpt lat="46.87567" lon="-71.64891">
        <ele>199.13012695312</ele>
        <time>2016-03-25T14:04:38Z</time>
      </trkpt>
      <trkpt lat="46.87572" lon="-71.64884">
        <ele>197.68823242188</ele>
        <time>2016-03-25T14:04:48Z</time>
      </trkpt>
      <trkpt lat="46.87576" lon="-71.64881">
        <ele>196.24633789062</ele>
        <time>2016-03-25T14:04:52Z</time>
      </trkpt>
      <trkpt lat="46.87583" lon="-71.64872">
        <ele>195.765625</ele>
        <time>2016-03-25T14:05:01Z</time>
      </trkpt>
      <trkpt lat="46.87597" lon="-71.64869">
        <ele>195.28491210938</ele>
        <time>2016-03-25T14:05:17Z</time>
      </trkpt>
      <trkpt lat="46.87607" lon="-71.64876">
        <ele>195.765625</ele>
        <time>2016-03-25T14:05:29Z</time>
      </trkpt>
      <trkpt lat="46.87616" lon="-71.64882">
        <ele>194.32373046875</ele>
        <time>2016-03-25T14:05:42Z</time>
      </trkpt>
      <trkpt lat="46.87623" lon="-71.6489">
        <ele>193.84301757812</ele>
        <time>2016-03-25T14:05:54Z</time>
      </trkpt>
      <trkpt lat="46.87633" lon="-71.649">
        <ele>194.32373046875</ele>
        <time>2016-03-25T14:06:06Z</time>
      </trkpt>
      <trkpt lat="46.87645" lon="-71.64906">
        <ele>194.32373046875</ele>
        <time>2016-03-25T14:06:19Z</time>
      </trkpt>
      <trkpt lat="46.87653" lon="-71.64916">
        <ele>194.32373046875</ele>
        <time>2016-03-25T14:06:33Z</time>
      </trkpt>
      <trkpt lat="46.87667" lon="-71.64923">
        <ele>193.3623046875</ele>
        <time>2016-03-25T14:06:47Z</time>
      </trkpt>
      <trkpt lat="46.87683" lon="-71.64924">
        <ele>191.43957519531</ele>
        <time>2016-03-25T14:07:00Z</time>
      </trkpt>
      <trkpt lat="46.87693" lon="-71.64929">
        <ele>191.43957519531</ele>
        <time>2016-03-25T14:07:13Z</time>
      </trkpt>
      <trkpt lat="46.87703" lon="-71.64934">
        <ele>190.958984375</ele>
        <time>2016-03-25T14:07:28Z</time>
      </trkpt>
      <trkpt lat="46.87712" lon="-71.64934">
        <ele>189.03637695312</ele>
        <time>2016-03-25T14:07:36Z</time>
      </trkpt>
      <trkpt lat="46.87721" lon="-71.64926">
        <ele>188.55578613281</ele>
        <time>2016-03-25T14:07:46Z</time>
      </trkpt>
      <trkpt lat="46.87723" lon="-71.64915">
        <ele>187.11376953125</ele>
        <time>2016-03-25T14:07:53Z</time>
      </trkpt>
      <trkpt lat="46.87726" lon="-71.64901">
        <ele>185.67175292969</ele>
        <time>2016-03-25T14:08:02Z</time>
      </trkpt>
      <trkpt lat="46.87738" lon="-71.64888">
        <ele>184.22985839844</ele>
        <time>2016-03-25T14:08:15Z</time>
      </trkpt>
      <trkpt lat="46.87747" lon="-71.64874">
        <ele>182.30712890625</ele>
        <time>2016-03-25T14:08:30Z</time>
      </trkpt>
      <trkpt lat="46.8776" lon="-71.64861">
        <ele>181.34582519531</ele>
        <time>2016-03-25T14:08:43Z</time>
      </trkpt>
      <trkpt lat="46.87768" lon="-71.64856">
        <ele>178.94262695312</ele>
        <time>2016-03-25T14:08:55Z</time>
      </trkpt>
      <trkpt lat="46.87775" lon="-71.64851">
        <ele>176.05859375</ele>
        <time>2016-03-25T14:09:04Z</time>
      </trkpt>
      <trkpt lat="46.87788" lon="-71.64844">
        <ele>176.05859375</ele>
        <time>2016-03-25T14:09:19Z</time>
      </trkpt>
      <trkpt lat="46.878" lon="-71.64835">
        <ele>177.02001953125</ele>
        <time>2016-03-25T14:09:32Z</time>
      </trkpt>
      <trkpt lat="46.87809" lon="-71.64831">
        <ele>177.98120117188</ele>
        <time>2016-03-25T14:09:45Z</time>
      </trkpt>
      <trkpt lat="46.87819" lon="-71.64835">
        <ele>178.94262695312</ele>
        <time>2016-03-25T14:09:59Z</time>
      </trkpt>
      <trkpt lat="46.87823" lon="-71.6484">
        <ele>179.42321777344</ele>
        <time>2016-03-25T14:10:06Z</time>
      </trkpt>
      <trkpt lat="46.87833" lon="-71.64855">
        <ele>179.90380859375</ele>
        <time>2016-03-25T14:10:23Z</time>
      </trkpt>
      <trkpt lat="46.87844" lon="-71.64864">
        <ele>180.38452148438</ele>
        <time>2016-03-25T14:10:38Z</time>
      </trkpt>
      <trkpt lat="46.87847" lon="-71.64882">
        <ele>182.30712890625</ele>
        <time>2016-03-25T14:10:52Z</time>
      </trkpt>
      <trkpt lat="46.87849" lon="-71.64895">
        <ele>182.78784179688</ele>
        <time>2016-03-25T14:11:03Z</time>
      </trkpt>
      <trkpt lat="46.87848" lon="-71.64912">
        <ele>184.22985839844</ele>
        <time>2016-03-25T14:11:15Z</time>
      </trkpt>
      <trkpt lat="46.87849" lon="-71.64917">
        <ele>184.71057128906</ele>
        <time>2016-03-25T14:11:19Z</time>
      </trkpt>
      <trkpt lat="46.87858" lon="-71.64931">
        <ele>185.67175292969</ele>
        <time>2016-03-25T14:11:32Z</time>
      </trkpt>
      <trkpt lat="46.87864" lon="-71.64939">
        <ele>186.63317871094</ele>
        <time>2016-03-25T14:11:43Z</time>
      </trkpt>
      <trkpt lat="46.87866" lon="-71.64945">
        <ele>185.67175292969</ele>
        <time>2016-03-25T14:11:57Z</time>
      </trkpt>
      <trkpt lat="46.87866" lon="-71.6496">
        <ele>187.59436035156</ele>
        <time>2016-03-25T14:12:10Z</time>
      </trkpt>
      <trkpt lat="46.87869" lon="-71.6497">
        <ele>188.55578613281</ele>
        <time>2016-03-25T14:12:21Z</time>
      </trkpt>
      <trkpt lat="46.87872" lon="-71.64984">
        <ele>189.03637695312</ele>
        <time>2016-03-25T14:12:34Z</time>
      </trkpt>
      <trkpt lat="46.87871" lon="-71.64994">
        <ele>189.99768066406</ele>
        <time>2016-03-25T14:12:42Z</time>
      </trkpt>
      <trkpt lat="46.87881" lon="-71.65007">
        <ele>190.958984375</ele>
        <time>2016-03-25T14:12:56Z</time>
      </trkpt>
      <trkpt lat="46.87892" lon="-71.65015">
        <ele>191.43957519531</ele>
        <time>2016-03-25T14:13:07Z</time>
      </trkpt>
      <trkpt lat="46.87903" lon="-71.65021">
        <ele>192.88171386719</ele>
        <time>2016-03-25T14:13:18Z</time>
      </trkpt>
      <trkpt lat="46.87909" lon="-71.65036">
        <ele>193.3623046875</ele>
        <time>2016-03-25T14:13:33Z</time>
      </trkpt>
      <trkpt lat="46.87907" lon="-71.65051">
        <ele>193.84301757812</ele>
        <time>2016-03-25T14:13:43Z</time>
      </trkpt>
      <trkpt lat="46.87909" lon="-71.65058">
        <ele>194.32373046875</ele>
        <time>2016-03-25T14:13:49Z</time>
      </trkpt>
      <trkpt lat="46.87912" lon="-71.65077">
        <ele>196.72692871094</ele>
        <time>2016-03-25T14:14:05Z</time>
      </trkpt>
      <trkpt lat="46.87924" lon="-71.6508">
        <ele>196.72692871094</ele>
        <time>2016-03-25T14:14:16Z</time>
      </trkpt>
      <trkpt lat="46.87932" lon="-71.65081">
        <ele>197.68823242188</ele>
        <time>2016-03-25T14:14:25Z</time>
      </trkpt>
      <trkpt lat="46.87945" lon="-71.65084">
        <ele>196.72692871094</ele>
        <time>2016-03-25T14:14:37Z</time>
      </trkpt>
      <trkpt lat="46.87951" lon="-71.65088">
        <ele>197.20751953125</ele>
        <time>2016-03-25T14:14:48Z</time>
      </trkpt>
      <trkpt lat="46.8796" lon="-71.65093">
        <ele>198.1689453125</ele>
        <time>2016-03-25T14:15:02Z</time>
      </trkpt>
      <trkpt lat="46.87965" lon="-71.65094">
        <ele>198.64953613281</ele>
        <time>2016-03-25T14:15:20Z</time>
      </trkpt>
      <trkpt lat="46.87978" lon="-71.65095">
        <ele>200.09167480469</ele>
        <time>2016-03-25T14:16:13Z</time>
      </trkpt>
      <trkpt lat="46.87979" lon="-71.65094">
        <ele>199.61083984375</ele>
        <time>2016-03-25T14:16:17Z</time>
      </trkpt>
      <trkpt lat="46.87981" lon="-71.651">
        <ele>199.61083984375</ele>
        <time>2016-03-25T14:16:29Z</time>
      </trkpt>
      <trkpt lat="46.8798" lon="-71.6511">
        <ele>200.572265625</ele>
        <time>2016-03-25T14:16:42Z</time>
      </trkpt>
      <trkpt lat="46.87984" lon="-71.65115">
        <ele>201.05285644531</ele>
        <time>2016-03-25T14:16:52Z</time>
      </trkpt>
      <trkpt lat="46.87994" lon="-71.65118">
        <ele>201.53356933594</ele>
        <time>2016-03-25T14:17:04Z</time>
      </trkpt>
      <trkpt lat="46.88002" lon="-71.65115">
        <ele>200.572265625</ele>
        <time>2016-03-25T14:17:11Z</time>
      </trkpt>
      <trkpt lat="46.88015" lon="-71.6511">
        <ele>200.09167480469</ele>
        <time>2016-03-25T14:17:22Z</time>
      </trkpt>
      <trkpt lat="46.88029" lon="-71.65107">
        <ele>198.64953613281</ele>
        <time>2016-03-25T14:17:35Z</time>
      </trkpt>
      <trkpt lat="46.88037" lon="-71.6511">
        <ele>198.1689453125</ele>
        <time>2016-03-25T14:17:45Z</time>
      </trkpt>
      <trkpt lat="46.88045" lon="-71.65112">
        <ele>197.20751953125</ele>
        <time>2016-03-25T14:17:59Z</time>
      </trkpt>
      <trkpt lat="46.88056" lon="-71.65105">
        <ele>196.24633789062</ele>
        <time>2016-03-25T14:18:11Z</time>
      </trkpt>
      <trkpt lat="46.88057" lon="-71.65105">
        <ele>196.24633789062</ele>
        <time>2016-03-25T14:18:12Z</time>
      </trkpt>
      <trkpt lat="46.88071" lon="-71.651">
        <ele>196.24633789062</ele>
        <time>2016-03-25T14:18:23Z</time>
      </trkpt>
      <trkpt lat="46.88086" lon="-71.65097">
        <ele>195.765625</ele>
        <time>2016-03-25T14:18:38Z</time>
      </trkpt>
      <trkpt lat="46.88102" lon="-71.65087">
        <ele>196.24633789062</ele>
        <time>2016-03-25T14:18:53Z</time>
      </trkpt>
      <trkpt lat="46.88103" lon="-71.65086">
        <ele>195.765625</ele>
        <time>2016-03-25T14:18:54Z</time>
      </trkpt>
      <trkpt lat="46.88112" lon="-71.65077">
        <ele>195.28491210938</ele>
        <time>2016-03-25T14:19:08Z</time>
      </trkpt>
      <trkpt lat="46.88117" lon="-71.65078">
        <ele>195.28491210938</ele>
        <time>2016-03-25T14:19:16Z</time>
      </trkpt>
      <trkpt lat="46.88134" lon="-71.6507">
        <ele>195.28491210938</ele>
        <time>2016-03-25T14:19:28Z</time>
      </trkpt>
      <trkpt lat="46.8814" lon="-71.65073">
        <ele>196.72692871094</ele>
        <time>2016-03-25T14:19:38Z</time>
      </trkpt>
      <trkpt lat="46.88149" lon="-71.65081">
        <ele>196.72692871094</ele>
        <time>2016-03-25T14:19:50Z</time>
      </trkpt>
      <trkpt lat="46.88166" lon="-71.65089">
        <ele>196.24633789062</ele>
        <time>2016-03-25T14:20:04Z</time>
      </trkpt>
      <trkpt lat="46.88172" lon="-71.65102">
        <ele>198.1689453125</ele>
        <time>2016-03-25T14:20:20Z</time>
      </trkpt>
      <trkpt lat="46.88186" lon="-71.65105">
        <ele>198.1689453125</ele>
        <time>2016-03-25T14:20:33Z</time>
      </trkpt>
      <trkpt lat="46.88204" lon="-71.65106">
        <ele>198.1689453125</ele>
        <time>2016-03-25T14:20:49Z</time>
      </trkpt>
      <trkpt lat="46.88211" lon="-71.65109">
        <ele>198.64953613281</ele>
        <time>2016-03-25T14:21:08Z</time>
      </trkpt>
      <trkpt lat="46.88217" lon="-71.65117">
        <ele>199.13012695312</ele>
        <time>2016-03-25T14:21:20Z</time>
      </trkpt>
      <trkpt lat="46.88226" lon="-71.65116">
        <ele>199.13012695312</ele>
        <time>2016-03-25T14:21:32Z</time>
      </trkpt>
      <trkpt lat="46.88241" lon="-71.65122">
        <ele>199.13012695312</ele>
        <time>2016-03-25T14:21:45Z</time>
      </trkpt>
      <trkpt lat="46.88249" lon="-71.65132">
        <ele>199.13012695312</ele>
        <time>2016-03-25T14:21:57Z</time>
      </trkpt>
      <trkpt lat="46.88252" lon="-71.65145">
        <ele>199.13012695312</ele>
        <time>2016-03-25T14:22:08Z</time>
      </trkpt>
      <trkpt lat="46.88252" lon="-71.65147">
        <ele>199.61083984375</ele>
        <time>2016-03-25T14:22:09Z</time>
      </trkpt>
      <trkpt lat="46.88263" lon="-71.65153">
        <ele>198.64953613281</ele>
        <time>2016-03-25T14:22:21Z</time>
      </trkpt>
      <trkpt lat="46.88269" lon="-71.65159">
        <ele>198.64953613281</ele>
        <time>2016-03-25T14:22:32Z</time>
      </trkpt>
      <trkpt lat="46.88271" lon="-71.65162">
        <ele>199.13012695312</ele>
        <time>2016-03-25T14:22:35Z</time>
      </trkpt>
      <trkpt lat="46.8828" lon="-71.65165">
        <ele>199.13012695312</ele>
        <time>2016-03-25T14:22:44Z</time>
      </trkpt>
      <trkpt lat="46.88288" lon="-71.65177">
        <ele>199.13012695312</ele>
        <time>2016-03-25T14:22:56Z</time>
      </trkpt>
      <trkpt lat="46.88296" lon="-71.65181">
        <ele>199.13012695312</ele>
        <time>2016-03-25T14:23:05Z</time>
      </trkpt>
      <trkpt lat="46.88306" lon="-71.65194">
        <ele>200.09167480469</ele>
        <time>2016-03-25T14:23:19Z</time>
      </trkpt>
      <trkpt lat="46.88314" lon="-71.65205">
        <ele>200.572265625</ele>
        <time>2016-03-25T14:23:32Z</time>
      </trkpt>
      <trkpt lat="46.88311" lon="-71.65211">
        <ele>201.05285644531</ele>
        <time>2016-03-25T14:23:44Z</time>
      </trkpt>
      <trkpt lat="46.8832" lon="-71.6522">
        <ele>201.05285644531</ele>
        <time>2016-03-25T14:23:55Z</time>
      </trkpt>
      <trkpt lat="46.88332" lon="-71.65232">
        <ele>202.01428222656</ele>
        <time>2016-03-25T14:24:07Z</time>
      </trkpt>
      <trkpt lat="46.8834" lon="-71.65244">
        <ele>203.45617675781</ele>
        <time>2016-03-25T14:24:18Z</time>
      </trkpt>
      <trkpt lat="46.88349" lon="-71.65264">
        <ele>206.34008789062</ele>
        <time>2016-03-25T14:24:35Z</time>
      </trkpt>
      <trkpt lat="46.88356" lon="-71.6527">
        <ele>206.82067871094</ele>
        <time>2016-03-25T14:24:52Z</time>
      </trkpt>
      <trkpt lat="46.88364" lon="-71.65282">
        <ele>207.30139160156</ele>
        <time>2016-03-25T14:25:09Z</time>
      </trkpt>
      <trkpt lat="46.88377" lon="-71.65298">
        <ele>207.78210449219</ele>
        <time>2016-03-25T14:25:27Z</time>
      </trkpt>
      <trkpt lat="46.8839" lon="-71.65313">
        <ele>208.26281738281</ele>
        <time>2016-03-25T14:25:43Z</time>
      </trkpt>
      <trkpt lat="46.88393" lon="-71.65319">
        <ele>207.30139160156</ele>
        <time>2016-03-25T14:25:57Z</time>
      </trkpt>
      <trkpt lat="46.88396" lon="-71.65318">
        <ele>208.26281738281</ele>
        <time>2016-03-25T14:26:01Z</time>
      </trkpt>
      <trkpt lat="46.88394" lon="-71.65321">
        <ele>207.30139160156</ele>
        <time>2016-03-25T14:26:05Z</time>
      </trkpt>
      <trkpt lat="46.88391" lon="-71.65328">
        <ele>208.74340820312</ele>
        <time>2016-03-25T14:26:32Z</time>
      </trkpt>
      <trkpt lat="46.88382" lon="-71.65336">
        <ele>209.22412109375</ele>
        <time>2016-03-25T14:26:36Z</time>
      </trkpt>
      <trkpt lat="46.88397" lon="-71.6531">
        <ele>209.70483398438</ele>
        <time>2016-03-25T14:27:53Z</time>
      </trkpt>
      <trkpt lat="46.88405" lon="-71.65281">
        <ele>211.14672851562</ele>
        <time>2016-03-25T14:28:29Z</time>
      </trkpt>
      <trkpt lat="46.88403" lon="-71.65302">
        <ele>211.14672851562</ele>
        <time>2016-03-25T14:28:53Z</time>
      </trkpt>
      <trkpt lat="46.88401" lon="-71.65305">
        <ele>211.14672851562</ele>
        <time>2016-03-25T14:29:17Z</time>
      </trkpt>
      <trkpt lat="46.88405" lon="-71.6531">
        <ele>212.58862304688</ele>
        <time>2016-03-25T14:31:07Z</time>
      </trkpt>
      <trkpt lat="46.884" lon="-71.65313">
        <ele>213.55004882812</ele>
        <time>2016-03-25T14:31:56Z</time>
      </trkpt>
      <trkpt lat="46.88399" lon="-71.65305">
        <ele>213.0693359375</ele>
        <time>2016-03-25T14:32:43Z</time>
      </trkpt>
      <trkpt lat="46.88402" lon="-71.6531">
        <ele>212.10803222656</ele>
        <time>2016-03-25T14:33:35Z</time>
      </trkpt>
      <trkpt lat="46.88397" lon="-71.65314">
        <ele>214.03063964844</ele>
        <time>2016-03-25T14:34:14Z</time>
      </trkpt>
      <trkpt lat="46.88399" lon="-71.65306">
        <ele>214.99194335938</ele>
        <time>2016-03-25T14:35:47Z</time>
      </trkpt>
      <trkpt lat="46.88407" lon="-71.6531">
        <ele>216.43395996094</ele>
        <time>2016-03-25T14:36:46Z</time>
      </trkpt>
      <trkpt lat="46.88402" lon="-71.65312">
        <ele>215.95324707031</ele>
        <time>2016-03-25T14:37:31Z</time>
      </trkpt>
      <trkpt lat="46.88405" lon="-71.65308">
        <ele>216.43395996094</ele>
        <time>2016-03-25T14:38:02Z</time>
      </trkpt>
      <trkpt lat="46.88401" lon="-71.65302">
        <ele>216.91467285156</ele>
        <time>2016-03-25T14:38:33Z</time>
      </trkpt>
      <trkpt lat="46.88401" lon="-71.65303">
        <ele>215.47265625</ele>
        <time>2016-03-25T14:39:03Z</time>
      </trkpt>
      <trkpt lat="46.88399" lon="-71.65311">
        <ele>215.47265625</ele>
        <time>2016-03-25T14:39:51Z</time>
      </trkpt>
      <trkpt lat="46.88399" lon="-71.6531">
        <ele>214.51123046875</ele>
        <time>2016-03-25T14:40:32Z</time>
      </trkpt>
      <trkpt lat="46.88401" lon="-71.6531">
        <ele>214.99194335938</ele>
        <time>2016-03-25T14:41:05Z</time>
      </trkpt>
      <trkpt lat="46.88399" lon="-71.65312">
        <ele>214.99194335938</ele>
        <time>2016-03-25T14:41:46Z</time>
      </trkpt>
      <trkpt lat="46.88398" lon="-71.65313">
        <ele>214.03063964844</ele>
        <time>2016-03-25T14:41:52Z</time>
      </trkpt>
      <trkpt lat="46.88397" lon="-71.65312">
        <ele>214.51123046875</ele>
        <time>2016-03-25T14:42:37Z</time>
      </trkpt>
      <trkpt lat="46.88403" lon="-71.65309">
        <ele>215.47265625</ele>
        <time>2016-03-25T14:43:29Z</time>
      </trkpt>
      <trkpt lat="46.88399" lon="-71.65305">
        <ele>214.99194335938</ele>
        <time>2016-03-25T14:44:03Z</time>
      </trkpt>
      <trkpt lat="46.88401" lon="-71.65307">
        <ele>215.95324707031</ele>
        <time>2016-03-25T14:44:39Z</time>
      </trkpt>
      <trkpt lat="46.884" lon="-71.65307">
        <ele>215.95324707031</ele>
        <time>2016-03-25T14:45:09Z</time>
      </trkpt>
      <trkpt lat="46.88403" lon="-71.6531">
        <ele>215.47265625</ele>
        <time>2016-03-25T14:46:02Z</time>
      </trkpt>
      <trkpt lat="46.88404" lon="-71.65309">
        <ele>215.47265625</ele>
        <time>2016-03-25T14:46:46Z</time>
      </trkpt>
      <trkpt lat="46.88397" lon="-71.65309">
        <ele>214.51123046875</ele>
        <time>2016-03-25T14:47:22Z</time>
      </trkpt>
      <trkpt lat="46.88398" lon="-71.65311">
        <ele>214.03063964844</ele>
        <time>2016-03-25T14:48:05Z</time>
      </trkpt>
      <trkpt lat="46.88403" lon="-71.65307">
        <ele>213.55004882812</ele>
        <time>2016-03-25T14:48:39Z</time>
      </trkpt>
      <trkpt lat="46.88401" lon="-71.65314">
        <ele>214.51123046875</ele>
        <time>2016-03-25T14:49:04Z</time>
      </trkpt>
      <trkpt lat="46.88406" lon="-71.65308">
        <ele>213.55004882812</ele>
        <time>2016-03-25T14:49:29Z</time>
      </trkpt>
      <trkpt lat="46.88406" lon="-71.65311">
        <ele>214.51123046875</ele>
        <time>2016-03-25T14:50:03Z</time>
      </trkpt>
      <trkpt lat="46.88401" lon="-71.65311">
        <ele>215.47265625</ele>
        <time>2016-03-25T14:50:19Z</time>
      </trkpt>
      <trkpt lat="46.88401" lon="-71.6531">
        <ele>215.95324707031</ele>
        <time>2016-03-25T14:51:17Z</time>
      </trkpt>
      <trkpt lat="46.88398" lon="-71.65314">
        <ele>216.91467285156</ele>
        <time>2016-03-25T14:51:38Z</time>
      </trkpt>
      <trkpt lat="46.88403" lon="-71.65321">
        <ele>215.95324707031</ele>
        <time>2016-03-25T14:52:09Z</time>
      </trkpt>
      <trkpt lat="46.884" lon="-71.65314">
        <ele>216.91467285156</ele>
        <time>2016-03-25T14:52:41Z</time>
      </trkpt>
      <trkpt lat="46.88399" lon="-71.65311">
        <ele>217.8759765625</ele>
        <time>2016-03-25T14:53:16Z</time>
      </trkpt>
      <trkpt lat="46.884" lon="-71.65312">
        <ele>217.39538574219</ele>
        <time>2016-03-25T14:53:57Z</time>
      </trkpt>
      <trkpt lat="46.884" lon="-71.65311">
        <ele>216.43395996094</ele>
        <time>2016-03-25T14:54:22Z</time>
      </trkpt>
      <trkpt lat="46.88399" lon="-71.65312">
        <ele>217.8759765625</ele>
        <time>2016-03-25T14:54:51Z</time>
      </trkpt>
      <trkpt lat="46.88392" lon="-71.65315">
        <ele>217.39538574219</ele>
        <time>2016-03-25T14:55:20Z</time>
      </trkpt>
      <trkpt lat="46.88392" lon="-71.65317">
        <ele>216.91467285156</ele>
        <time>2016-03-25T14:55:40Z</time>
      </trkpt>
      <trkpt lat="46.8839" lon="-71.65315">
        <ele>215.95324707031</ele>
        <time>2016-03-25T14:56:01Z</time>
      </trkpt>
      <trkpt lat="46.8839" lon="-71.65315">
        <ele>210.666015625</ele>
        <time>2016-03-25T14:56:06Z</time>
      </trkpt>
      <trkpt lat="46.8839" lon="-71.65315">
        <ele>214.99194335938</ele>
        <time>2016-03-25T14:56:07Z</time>
      </trkpt>
      <trkpt lat="46.88389" lon="-71.65316">
        <ele>215.47265625</ele>
        <time>2016-03-25T14:56:27Z</time>
      </trkpt>
      <trkpt lat="46.8839" lon="-71.65315">
        <ele>213.0693359375</ele>
        <time>2016-03-25T14:56:29Z</time>
      </trkpt>
      <trkpt lat="46.8839" lon="-71.65315">
        <ele>215.47265625</ele>
        <time>2016-03-25T14:56:31Z</time>
      </trkpt>
      <trkpt lat="46.88391" lon="-71.65318">
        <ele>214.03063964844</ele>
        <time>2016-03-25T14:57:12Z</time>
      </trkpt>
      <trkpt lat="46.88391" lon="-71.65319">
        <ele>214.99194335938</ele>
        <time>2016-03-25T14:57:17Z</time>
      </trkpt>
      <trkpt lat="46.88392" lon="-71.65316">
        <ele>214.99194335938</ele>
        <time>2016-03-25T14:57:37Z</time>
      </trkpt>
      <trkpt lat="46.88388" lon="-71.65309">
        <ele>214.51123046875</ele>
        <time>2016-03-25T14:57:53Z</time>
      </trkpt>
      <trkpt lat="46.88383" lon="-71.65301">
        <ele>213.55004882812</ele>
        <time>2016-03-25T14:58:03Z</time>
      </trkpt>
      <trkpt lat="46.8837" lon="-71.65285">
        <ele>212.58862304688</ele>
        <time>2016-03-25T14:58:20Z</time>
      </trkpt>
      <trkpt lat="46.88356" lon="-71.65268">
        <ele>211.14672851562</ele>
        <time>2016-03-25T14:58:39Z</time>
      </trkpt>
      <trkpt lat="46.88345" lon="-71.65254">
        <ele>210.18542480469</ele>
        <time>2016-03-25T14:58:54Z</time>
      </trkpt>
      <trkpt lat="46.88333" lon="-71.65235">
        <ele>206.34008789062</ele>
        <time>2016-03-25T14:59:10Z</time>
      </trkpt>
      <trkpt lat="46.88321" lon="-71.65214">
        <ele>205.37878417969</ele>
        <time>2016-03-25T14:59:27Z</time>
      </trkpt>
      <trkpt lat="46.88318" lon="-71.65206">
        <ele>204.89807128906</ele>
        <time>2016-03-25T14:59:35Z</time>
      </trkpt>
      <trkpt lat="46.88318" lon="-71.65197">
        <ele>204.41748046875</ele>
        <time>2016-03-25T14:59:40Z</time>
      </trkpt>
      <trkpt lat="46.88305" lon="-71.65181">
        <ele>204.89807128906</ele>
        <time>2016-03-25T14:59:57Z</time>
      </trkpt>
      <trkpt lat="46.88292" lon="-71.65169">
        <ele>204.41748046875</ele>
        <time>2016-03-25T15:00:12Z</time>
      </trkpt>
      <trkpt lat="46.88278" lon="-71.6516">
        <ele>203.45617675781</ele>
        <time>2016-03-25T15:00:28Z</time>
      </trkpt>
      <trkpt lat="46.88269" lon="-71.65151">
        <ele>202.01428222656</ele>
        <time>2016-03-25T15:00:40Z</time>
      </trkpt>
      <trkpt lat="46.88267" lon="-71.65151">
        <ele>203.45617675781</ele>
        <time>2016-03-25T15:00:42Z</time>
      </trkpt>
      <trkpt lat="46.8826" lon="-71.65141">
        <ele>203.45617675781</ele>
        <time>2016-03-25T15:00:57Z</time>
      </trkpt>
      <trkpt lat="46.8826" lon="-71.6514">
        <ele>202.97546386719</ele>
        <time>2016-03-25T15:00:58Z</time>
      </trkpt>
      <trkpt lat="46.88249" lon="-71.65124">
        <ele>203.45617675781</ele>
        <time>2016-03-25T15:01:12Z</time>
      </trkpt>
      <trkpt lat="46.8824" lon="-71.65116">
        <ele>203.45617675781</ele>
        <time>2016-03-25T15:01:21Z</time>
      </trkpt>
      <trkpt lat="46.88222" lon="-71.65111">
        <ele>202.97546386719</ele>
        <time>2016-03-25T15:01:38Z</time>
      </trkpt>
      <trkpt lat="46.8821" lon="-71.65102">
        <ele>201.53356933594</ele>
        <time>2016-03-25T15:01:52Z</time>
      </trkpt>
      <trkpt lat="46.88197" lon="-71.65103">
        <ele>202.01428222656</ele>
        <time>2016-03-25T15:02:08Z</time>
      </trkpt>
      <trkpt lat="46.88178" lon="-71.65099">
        <ele>201.05285644531</ele>
        <time>2016-03-25T15:02:26Z</time>
      </trkpt>
      <trkpt lat="46.88175" lon="-71.65096">
        <ele>200.09167480469</ele>
        <time>2016-03-25T15:02:30Z</time>
      </trkpt>
      <trkpt lat="46.88156" lon="-71.65081">
        <ele>199.13012695312</ele>
        <time>2016-03-25T15:02:50Z</time>
      </trkpt>
      <trkpt lat="46.88155" lon="-71.65081">
        <ele>200.09167480469</ele>
        <time>2016-03-25T15:02:51Z</time>
      </trkpt>
      <trkpt lat="46.88141" lon="-71.6507">
        <ele>198.64953613281</ele>
        <time>2016-03-25T15:03:05Z</time>
      </trkpt>
      <trkpt lat="46.88136" lon="-71.65069">
        <ele>197.20751953125</ele>
        <time>2016-03-25T15:03:10Z</time>
      </trkpt>
      <trkpt lat="46.88123" lon="-71.65074">
        <ele>197.68823242188</ele>
        <time>2016-03-25T15:03:26Z</time>
      </trkpt>
      <trkpt lat="46.88112" lon="-71.65075">
        <ele>198.64953613281</ele>
        <time>2016-03-25T15:03:40Z</time>
      </trkpt>
      <trkpt lat="46.88104" lon="-71.65079">
        <ele>198.64953613281</ele>
        <time>2016-03-25T15:03:48Z</time>
      </trkpt>
      <trkpt lat="46.88101" lon="-71.65083">
        <ele>199.13012695312</ele>
        <time>2016-03-25T15:03:52Z</time>
      </trkpt>
      <trkpt lat="46.88096" lon="-71.65084">
        <ele>199.13012695312</ele>
        <time>2016-03-25T15:03:56Z</time>
      </trkpt>
      <trkpt lat="46.88079" lon="-71.65092">
        <ele>199.13012695312</ele>
        <time>2016-03-25T15:04:13Z</time>
      </trkpt>
      <trkpt lat="46.88069" lon="-71.65101">
        <ele>200.572265625</ele>
        <time>2016-03-25T15:04:27Z</time>
      </trkpt>
      <trkpt lat="46.8805" lon="-71.65104">
        <ele>200.572265625</ele>
        <time>2016-03-25T15:04:45Z</time>
      </trkpt>
      <trkpt lat="46.88033" lon="-71.65102">
        <ele>200.572265625</ele>
        <time>2016-03-25T15:05:01Z</time>
      </trkpt>
      <trkpt lat="46.88015" lon="-71.65105">
        <ele>200.572265625</ele>
        <time>2016-03-25T15:05:18Z</time>
      </trkpt>
      <trkpt lat="46.87998" lon="-71.6511">
        <ele>202.01428222656</ele>
        <time>2016-03-25T15:05:34Z</time>
      </trkpt>
      <trkpt lat="46.87981" lon="-71.65101">
        <ele>201.53356933594</ele>
        <time>2016-03-25T15:05:51Z</time>
      </trkpt>
      <trkpt lat="46.8798" lon="-71.651">
        <ele>201.53356933594</ele>
        <time>2016-03-25T15:05:52Z</time>
      </trkpt>
      <trkpt lat="46.87961" lon="-71.65085">
        <ele>200.09167480469</ele>
        <time>2016-03-25T15:06:12Z</time>
      </trkpt>
      <trkpt lat="46.87943" lon="-71.65078">
        <ele>200.09167480469</ele>
        <time>2016-03-25T15:06:29Z</time>
      </trkpt>
      <trkpt lat="46.87936" lon="-71.65076">
        <ele>199.13012695312</ele>
        <time>2016-03-25T15:06:35Z</time>
      </trkpt>
      <trkpt lat="46.87919" lon="-71.65066">
        <ele>198.64953613281</ele>
        <time>2016-03-25T15:06:55Z</time>
      </trkpt>
      <trkpt lat="46.87911" lon="-71.65041">
        <ele>197.68823242188</ele>
        <time>2016-03-25T15:07:11Z</time>
      </trkpt>
      <trkpt lat="46.87911" lon="-71.6503">
        <ele>197.20751953125</ele>
        <time>2016-03-25T15:07:16Z</time>
      </trkpt>
      <trkpt lat="46.87909" lon="-71.65026">
        <ele>197.20751953125</ele>
        <time>2016-03-25T15:07:19Z</time>
      </trkpt>
      <trkpt lat="46.879" lon="-71.65014">
        <ele>196.24633789062</ele>
        <time>2016-03-25T15:07:31Z</time>
      </trkpt>
      <trkpt lat="46.87896" lon="-71.6501">
        <ele>195.28491210938</ele>
        <time>2016-03-25T15:07:35Z</time>
      </trkpt>
      <trkpt lat="46.87892" lon="-71.65003">
        <ele>195.28491210938</ele>
        <time>2016-03-25T15:07:43Z</time>
      </trkpt>
      <trkpt lat="46.87889" lon="-71.64999">
        <ele>195.765625</ele>
        <time>2016-03-25T15:07:47Z</time>
      </trkpt>
      <trkpt lat="46.8788" lon="-71.64982">
        <ele>193.3623046875</ele>
        <time>2016-03-25T15:08:02Z</time>
      </trkpt>
      <trkpt lat="46.87871" lon="-71.64959">
        <ele>191.92028808594</ele>
        <time>2016-03-25T15:08:18Z</time>
      </trkpt>
      <trkpt lat="46.87867" lon="-71.64951">
        <ele>190.47839355469</ele>
        <time>2016-03-25T15:08:24Z</time>
      </trkpt>
      <trkpt lat="46.87863" lon="-71.64945">
        <ele>190.47839355469</ele>
        <time>2016-03-25T15:08:29Z</time>
      </trkpt>
      <trkpt lat="46.8786" lon="-71.64933">
        <ele>189.03637695312</ele>
        <time>2016-03-25T15:08:37Z</time>
      </trkpt>
      <trkpt lat="46.87852" lon="-71.64916">
        <ele>188.55578613281</ele>
        <time>2016-03-25T15:08:50Z</time>
      </trkpt>
      <trkpt lat="46.87851" lon="-71.64899">
        <ele>188.55578613281</ele>
        <time>2016-03-25T15:09:03Z</time>
      </trkpt>
      <trkpt lat="46.87849" lon="-71.6487">
        <ele>187.11376953125</ele>
        <time>2016-03-25T15:09:18Z</time>
      </trkpt>
      <trkpt lat="46.87842" lon="-71.64862">
        <ele>186.63317871094</ele>
        <time>2016-03-25T15:09:27Z</time>
      </trkpt>
      <trkpt lat="46.87835" lon="-71.64851">
        <ele>185.67175292969</ele>
        <time>2016-03-25T15:09:37Z</time>
      </trkpt>
      <trkpt lat="46.87826" lon="-71.64838">
        <ele>184.71057128906</ele>
        <time>2016-03-25T15:09:49Z</time>
      </trkpt>
      <trkpt lat="46.87809" lon="-71.64826">
        <ele>182.30712890625</ele>
        <time>2016-03-25T15:10:04Z</time>
      </trkpt>
      <trkpt lat="46.87803" lon="-71.64828">
        <ele>180.38452148438</ele>
        <time>2016-03-25T15:10:11Z</time>
      </trkpt>
      <trkpt lat="46.87785" lon="-71.64835">
        <ele>179.90380859375</ele>
        <time>2016-03-25T15:10:26Z</time>
      </trkpt>
      <trkpt lat="46.87772" lon="-71.64843">
        <ele>181.34582519531</ele>
        <time>2016-03-25T15:10:40Z</time>
      </trkpt>
      <trkpt lat="46.87762" lon="-71.64851">
        <ele>184.71057128906</ele>
        <time>2016-03-25T15:10:51Z</time>
      </trkpt>
      <trkpt lat="46.87755" lon="-71.64858">
        <ele>185.19116210938</ele>
        <time>2016-03-25T15:10:59Z</time>
      </trkpt>
      <trkpt lat="46.87748" lon="-71.64865">
        <ele>185.19116210938</ele>
        <time>2016-03-25T15:11:06Z</time>
      </trkpt>
      <trkpt lat="46.87745" lon="-71.6487">
        <ele>185.67175292969</ele>
        <time>2016-03-25T15:11:11Z</time>
      </trkpt>
      <trkpt lat="46.87731" lon="-71.64884">
        <ele>187.11376953125</ele>
        <time>2016-03-25T15:11:29Z</time>
      </trkpt>
      <trkpt lat="46.87725" lon="-71.649">
        <ele>189.99768066406</ele>
        <time>2016-03-25T15:11:43Z</time>
      </trkpt>
      <trkpt lat="46.87725" lon="-71.64907">
        <ele>190.958984375</ele>
        <time>2016-03-25T15:11:49Z</time>
      </trkpt>
      <trkpt lat="46.87717" lon="-71.64923">
        <ele>191.43957519531</ele>
        <time>2016-03-25T15:12:04Z</time>
      </trkpt>
      <trkpt lat="46.87709" lon="-71.64925">
        <ele>192.88171386719</ele>
        <time>2016-03-25T15:12:13Z</time>
      </trkpt>
      <trkpt lat="46.87691" lon="-71.64919">
        <ele>193.3623046875</ele>
        <time>2016-03-25T15:12:33Z</time>
      </trkpt>
      <trkpt lat="46.87672" lon="-71.64914">
        <ele>194.80432128906</ele>
        <time>2016-03-25T15:12:52Z</time>
      </trkpt>
      <trkpt lat="46.87668" lon="-71.64912">
        <ele>194.80432128906</ele>
        <time>2016-03-25T15:12:56Z</time>
      </trkpt>
      <trkpt lat="46.8766" lon="-71.64909">
        <ele>195.765625</ele>
        <time>2016-03-25T15:13:04Z</time>
      </trkpt>
      <trkpt lat="46.87646" lon="-71.649">
        <ele>196.72692871094</ele>
        <time>2016-03-25T15:13:18Z</time>
      </trkpt>
      <trkpt lat="46.87634" lon="-71.64884">
        <ele>197.20751953125</ele>
        <time>2016-03-25T15:13:31Z</time>
      </trkpt>
      <trkpt lat="46.87619" lon="-71.64874">
        <ele>197.68823242188</ele>
        <time>2016-03-25T15:13:46Z</time>
      </trkpt>
      <trkpt lat="46.87616" lon="-71.64872">
        <ele>197.68823242188</ele>
        <time>2016-03-25T15:13:49Z</time>
      </trkpt>
      <trkpt lat="46.87608" lon="-71.64866">
        <ele>197.68823242188</ele>
        <time>2016-03-25T15:13:58Z</time>
      </trkpt>
      <trkpt lat="46.87593" lon="-71.6486">
        <ele>198.64953613281</ele>
        <time>2016-03-25T15:14:14Z</time>
      </trkpt>
      <trkpt lat="46.87591" lon="-71.64864">
        <ele>199.61083984375</ele>
        <time>2016-03-25T15:14:18Z</time>
      </trkpt>
      <trkpt lat="46.87586" lon="-71.6487">
        <ele>200.09167480469</ele>
        <time>2016-03-25T15:14:24Z</time>
      </trkpt>
      <trkpt lat="46.87568" lon="-71.64882">
        <ele>202.01428222656</ele>
        <time>2016-03-25T15:14:42Z</time>
      </trkpt>
      <trkpt lat="46.87568" lon="-71.64883">
        <ele>202.97546386719</ele>
        <time>2016-03-25T15:14:44Z</time>
      </trkpt>
      <trkpt lat="46.87565" lon="-71.64885">
        <ele>199.13012695312</ele>
        <time>2016-03-25T15:14:48Z</time>
      </trkpt>
      <trkpt lat="46.87564" lon="-71.64886">
        <ele>204.41748046875</ele>
        <time>2016-03-25T15:14:49Z</time>
      </trkpt>
      <trkpt lat="46.87561" lon="-71.64889">
        <ele>200.572265625</ele>
        <time>2016-03-25T15:14:54Z</time>
      </trkpt>
      <trkpt lat="46.8756" lon="-71.6489">
        <ele>204.89807128906</ele>
        <time>2016-03-25T15:14:55Z</time>
      </trkpt>
      <trkpt lat="46.87547" lon="-71.64902">
        <ele>204.41748046875</ele>
        <time>2016-03-25T15:15:10Z</time>
      </trkpt>
      <trkpt lat="46.87537" lon="-71.64904">
        <ele>204.89807128906</ele>
        <time>2016-03-25T15:15:26Z</time>
      </trkpt>
      <trkpt lat="46.87527" lon="-71.64901">
        <ele>205.85949707031</ele>
        <time>2016-03-25T15:15:39Z</time>
      </trkpt>
      <trkpt lat="46.87518" lon="-71.6491">
        <ele>206.82067871094</ele>
        <time>2016-03-25T15:15:56Z</time>
      </trkpt>
      <trkpt lat="46.87515" lon="-71.64916">
        <ele>207.30139160156</ele>
        <time>2016-03-25T15:16:02Z</time>
      </trkpt>
      <trkpt lat="46.87506" lon="-71.64924">
        <ele>208.26281738281</ele>
        <time>2016-03-25T15:16:13Z</time>
      </trkpt>
      <trkpt lat="46.87491" lon="-71.64932">
        <ele>210.18542480469</ele>
        <time>2016-03-25T15:16:29Z</time>
      </trkpt>
      <trkpt lat="46.87483" lon="-71.64934">
        <ele>209.22412109375</ele>
        <time>2016-03-25T15:16:43Z</time>
      </trkpt>
      <trkpt lat="46.8748" lon="-71.64935">
        <ele>209.22412109375</ele>
        <time>2016-03-25T15:16:47Z</time>
      </trkpt>
      <trkpt lat="46.87469" lon="-71.64937">
        <ele>209.70483398438</ele>
        <time>2016-03-25T15:17:05Z</time>
      </trkpt>
      <trkpt lat="46.87468" lon="-71.64937">
        <ele>209.70483398438</ele>
        <time>2016-03-25T15:17:07Z</time>
      </trkpt>
      <trkpt lat="46.87452" lon="-71.64927">
        <ele>209.70483398438</ele>
        <time>2016-03-25T15:17:24Z</time>
      </trkpt>
      <trkpt lat="46.87446" lon="-71.64921">
        <ele>209.70483398438</ele>
        <time>2016-03-25T15:17:39Z</time>
      </trkpt>
      <trkpt lat="46.8744" lon="-71.64908">
        <ele>209.70483398438</ele>
        <time>2016-03-25T15:18:02Z</time>
      </trkpt>
      <trkpt lat="46.87439" lon="-71.64904">
        <ele>209.22412109375</ele>
        <time>2016-03-25T15:18:07Z</time>
      </trkpt>
      <trkpt lat="46.87431" lon="-71.64887">
        <ele>209.22412109375</ele>
        <time>2016-03-25T15:18:24Z</time>
      </trkpt>
      <trkpt lat="46.87415" lon="-71.64872">
        <ele>209.22412109375</ele>
        <time>2016-03-25T15:18:41Z</time>
      </trkpt>
      <trkpt lat="46.87408" lon="-71.64863">
        <ele>209.70483398438</ele>
        <time>2016-03-25T15:18:57Z</time>
      </trkpt>
      <trkpt lat="46.87409" lon="-71.64859">
        <ele>209.70483398438</ele>
        <time>2016-03-25T15:19:07Z</time>
      </trkpt>
      <trkpt lat="46.87415" lon="-71.64856">
        <ele>209.70483398438</ele>
        <time>2016-03-25T15:19:15Z</time>
      </trkpt>
      <trkpt lat="46.87431" lon="-71.64854">
        <ele>208.74340820312</ele>
        <time>2016-03-25T15:19:30Z</time>
      </trkpt>
      <trkpt lat="46.87437" lon="-71.64851">
        <ele>208.74340820312</ele>
        <time>2016-03-25T15:19:36Z</time>
      </trkpt>
      <trkpt lat="46.87444" lon="-71.64837">
        <ele>208.74340820312</ele>
        <time>2016-03-25T15:19:47Z</time>
      </trkpt>
      <trkpt lat="46.87452" lon="-71.64816">
        <ele>207.78210449219</ele>
        <time>2016-03-25T15:20:00Z</time>
      </trkpt>
      <trkpt lat="46.87461" lon="-71.64792">
        <ele>206.82067871094</ele>
        <time>2016-03-25T15:20:16Z</time>
      </trkpt>
      <trkpt lat="46.87464" lon="-71.64781">
        <ele>206.34008789062</ele>
        <time>2016-03-25T15:20:23Z</time>
      </trkpt>
      <trkpt lat="46.87474" lon="-71.64756">
        <ele>206.34008789062</ele>
        <time>2016-03-25T15:20:40Z</time>
      </trkpt>
      <trkpt lat="46.87475" lon="-71.64744">
        <ele>205.85949707031</ele>
        <time>2016-03-25T15:20:47Z</time>
      </trkpt>
      <trkpt lat="46.87477" lon="-71.64716">
        <ele>205.85949707031</ele>
        <time>2016-03-25T15:21:06Z</time>
      </trkpt>
      <trkpt lat="46.87478" lon="-71.64706">
        <ele>206.34008789062</ele>
        <time>2016-03-25T15:21:13Z</time>
      </trkpt>
      <trkpt lat="46.87482" lon="-71.64693">
        <ele>205.37878417969</ele>
        <time>2016-03-25T15:21:21Z</time>
      </trkpt>
      <trkpt lat="46.87494" lon="-71.64675">
        <ele>203.93688964844</ele>
        <time>2016-03-25T15:21:36Z</time>
      </trkpt>
      <trkpt lat="46.87496" lon="-71.64669">
        <ele>204.41748046875</ele>
        <time>2016-03-25T15:21:39Z</time>
      </trkpt>
      <trkpt lat="46.87499" lon="-71.64643">
        <ele>203.45617675781</ele>
        <time>2016-03-25T15:21:55Z</time>
      </trkpt>
      <trkpt lat="46.87492" lon="-71.64614">
        <ele>203.45617675781</ele>
        <time>2016-03-25T15:22:13Z</time>
      </trkpt>
      <trkpt lat="46.8749" lon="-71.6461">
        <ele>202.97546386719</ele>
        <time>2016-03-25T15:22:17Z</time>
      </trkpt>
      <trkpt lat="46.87485" lon="-71.64593">
        <ele>202.49487304688</ele>
        <time>2016-03-25T15:22:28Z</time>
      </trkpt>
      <trkpt lat="46.87486" lon="-71.64589">
        <ele>202.01428222656</ele>
        <time>2016-03-25T15:22:30Z</time>
      </trkpt>
      <trkpt lat="46.8749" lon="-71.64578">
        <ele>200.572265625</ele>
        <time>2016-03-25T15:22:37Z</time>
      </trkpt>
      <trkpt lat="46.87491" lon="-71.64574">
        <ele>199.61083984375</ele>
        <time>2016-03-25T15:22:39Z</time>
      </trkpt>
      <trkpt lat="46.87492" lon="-71.6457">
        <ele>200.09167480469</ele>
        <time>2016-03-25T15:22:42Z</time>
      </trkpt>
      <trkpt lat="46.87495" lon="-71.64558">
        <ele>198.1689453125</ele>
        <time>2016-03-25T15:22:50Z</time>
      </trkpt>
      <trkpt lat="46.87495" lon="-71.64554">
        <ele>197.20751953125</ele>
        <time>2016-03-25T15:22:52Z</time>
      </trkpt>
      <trkpt lat="46.87497" lon="-71.6455">
        <ele>197.68823242188</ele>
        <time>2016-03-25T15:22:54Z</time>
      </trkpt>
      <trkpt lat="46.87503" lon="-71.64519">
        <ele>194.80432128906</ele>
        <time>2016-03-25T15:23:10Z</time>
      </trkpt>
      <trkpt lat="46.87504" lon="-71.64487">
        <ele>192.40112304688</ele>
        <time>2016-03-25T15:23:28Z</time>
      </trkpt>
      <trkpt lat="46.87499" lon="-71.64456">
        <ele>189.99768066406</ele>
        <time>2016-03-25T15:23:45Z</time>
      </trkpt>
      <trkpt lat="46.87494" lon="-71.64428">
        <ele>187.11376953125</ele>
        <time>2016-03-25T15:24:00Z</time>
      </trkpt>
      <trkpt lat="46.87494" lon="-71.64424">
        <ele>187.11376953125</ele>
        <time>2016-03-25T15:24:03Z</time>
      </trkpt>
      <trkpt lat="46.87489" lon="-71.64398">
        <ele>185.67175292969</ele>
        <time>2016-03-25T15:24:20Z</time>
      </trkpt>
      <trkpt lat="46.87482" lon="-71.64366">
        <ele>185.19116210938</ele>
        <time>2016-03-25T15:24:40Z</time>
      </trkpt>
      <trkpt lat="46.87483" lon="-71.64352">
        <ele>182.30712890625</ele>
        <time>2016-03-25T15:24:48Z</time>
      </trkpt>
      <trkpt lat="46.87483" lon="-71.64343">
        <ele>180.38452148438</ele>
        <time>2016-03-25T15:24:54Z</time>
      </trkpt>
      <trkpt lat="46.87483" lon="-71.64337">
        <ele>180.38452148438</ele>
        <time>2016-03-25T15:24:58Z</time>
      </trkpt>
      <trkpt lat="46.87483" lon="-71.6432">
        <ele>177.50061035156</ele>
        <time>2016-03-25T15:25:08Z</time>
      </trkpt>
      <trkpt lat="46.87479" lon="-71.64295">
        <ele>175.57788085938</ele>
        <time>2016-03-25T15:25:23Z</time>
      </trkpt>
      <trkpt lat="46.87473" lon="-71.64269">
        <ele>173.17468261719</ele>
        <time>2016-03-25T15:25:38Z</time>
      </trkpt>
      <trkpt lat="46.8747" lon="-71.64242">
        <ele>171.25207519531</ele>
        <time>2016-03-25T15:25:55Z</time>
      </trkpt>
      <trkpt lat="46.87469" lon="-71.64218">
        <ele>168.84875488281</ele>
        <time>2016-03-25T15:26:09Z</time>
      </trkpt>
      <trkpt lat="46.87472" lon="-71.64213">
        <ele>168.84875488281</ele>
        <time>2016-03-25T15:26:14Z</time>
      </trkpt>
      <trkpt lat="46.87478" lon="-71.64217">
        <ele>168.84875488281</ele>
        <time>2016-03-25T15:26:21Z</time>
      </trkpt>
      <trkpt lat="46.875" lon="-71.64224">
        <ele>167.88732910156</ele>
        <time>2016-03-25T15:26:40Z</time>
      </trkpt>
      <trkpt lat="46.87521" lon="-71.64228">
        <ele>166.4453125</ele>
        <time>2016-03-25T15:26:59Z</time>
      </trkpt>
      <trkpt lat="46.87527" lon="-71.64229">
        <ele>165.96472167969</ele>
        <time>2016-03-25T15:27:04Z</time>
      </trkpt>
      <trkpt lat="46.87532" lon="-71.64221">
        <ele>165.00341796875</ele>
        <time>2016-03-25T15:27:22Z</time>
      </trkpt>
      <trkpt lat="46.87533" lon="-71.64209">
        <ele>164.52270507812</ele>
        <time>2016-03-25T15:27:42Z</time>
      </trkpt>
      <trkpt lat="46.87537" lon="-71.64201">
        <ele>164.04211425781</ele>
        <time>2016-03-25T15:28:00Z</time>
      </trkpt>
      <trkpt lat="46.87538" lon="-71.64206">
        <ele>164.04211425781</ele>
        <time>2016-03-25T15:28:13Z</time>
      </trkpt>
      <trkpt lat="46.87537" lon="-71.64215">
        <ele>165.00341796875</ele>
        <time>2016-03-25T15:28:29Z</time>
      </trkpt>
      <trkpt lat="46.87537" lon="-71.64216">
        <ele>165.48413085938</ele>
        <time>2016-03-25T15:29:03Z</time>
      </trkpt>
      <trkpt lat="46.87537" lon="-71.64215">
        <ele>164.52270507812</ele>
        <time>2016-03-25T15:29:10Z</time>
      </trkpt>
      <trkpt lat="46.87539" lon="-71.64205">
        <ele>164.04211425781</ele>
        <time>2016-03-25T15:29:28Z</time>
      </trkpt>
      <trkpt lat="46.87542" lon="-71.64198">
        <ele>163.08081054688</ele>
        <time>2016-03-25T15:29:43Z</time>
      </trkpt>
      <trkpt lat="46.87544" lon="-71.64194">
        <ele>162.60009765625</ele>
        <time>2016-03-25T15:29:58Z</time>
      </trkpt>
      <trkpt lat="46.87541" lon="-71.64199">
        <ele>163.5615234375</ele>
        <time>2016-03-25T15:30:13Z</time>
      </trkpt>
      <trkpt lat="46.87539" lon="-71.64202">
        <ele>164.04211425781</ele>
        <time>2016-03-25T15:30:38Z</time>
      </trkpt>
      <trkpt lat="46.87533" lon="-71.64213">
        <ele>165.00341796875</ele>
        <time>2016-03-25T15:30:54Z</time>
      </trkpt>
      <trkpt lat="46.87529" lon="-71.64234">
        <ele>165.96472167969</ele>
        <time>2016-03-25T15:31:13Z</time>
      </trkpt>
      <trkpt lat="46.87517" lon="-71.64237">
        <ele>166.92602539062</ele>
        <time>2016-03-25T15:31:28Z</time>
      </trkpt>
      <trkpt lat="46.87495" lon="-71.64232">
        <ele>168.84875488281</ele>
        <time>2016-03-25T15:31:51Z</time>
      </trkpt>
      <trkpt lat="46.87495" lon="-71.64232">
        <ele>168.84875488281</ele>
        <time>2016-03-25T15:31:52Z</time>
      </trkpt>
      <trkpt lat="46.87486" lon="-71.64226">
        <ele>168.84875488281</ele>
        <time>2016-03-25T15:32:11Z</time>
      </trkpt>
      <trkpt lat="46.87469" lon="-71.64216">
        <ele>168.36804199219</ele>
        <time>2016-03-25T15:32:32Z</time>
      </trkpt>
      <trkpt lat="46.87468" lon="-71.64214">
        <ele>168.84875488281</ele>
        <time>2016-03-25T15:32:34Z</time>
      </trkpt>
      <trkpt lat="46.87451" lon="-71.64189">
        <ele>168.36804199219</ele>
        <time>2016-03-25T15:32:54Z</time>
      </trkpt>
      <trkpt lat="46.87443" lon="-71.64175">
        <ele>167.88732910156</ele>
        <time>2016-03-25T15:33:08Z</time>
      </trkpt>
      <trkpt lat="46.87428" lon="-71.64151">
        <ele>168.36804199219</ele>
        <time>2016-03-25T15:33:28Z</time>
      </trkpt>
      <trkpt lat="46.87425" lon="-71.64146">
        <ele>168.36804199219</ele>
        <time>2016-03-25T15:33:33Z</time>
      </trkpt>
      <trkpt lat="46.87423" lon="-71.64144">
        <ele>168.36804199219</ele>
        <time>2016-03-25T15:33:35Z</time>
      </trkpt>
      <trkpt lat="46.87409" lon="-71.64125">
        <ele>167.88732910156</ele>
        <time>2016-03-25T15:33:54Z</time>
      </trkpt>
      <trkpt lat="46.874" lon="-71.64113">
        <ele>167.88732910156</ele>
        <time>2016-03-25T15:34:10Z</time>
      </trkpt>
      <trkpt lat="46.87382" lon="-71.64104">
        <ele>168.84875488281</ele>
        <time>2016-03-25T15:34:29Z</time>
      </trkpt>
      <trkpt lat="46.87367" lon="-71.64096">
        <ele>168.84875488281</ele>
        <time>2016-03-25T15:34:46Z</time>
      </trkpt>
      <trkpt lat="46.87353" lon="-71.64087">
        <ele>168.84875488281</ele>
        <time>2016-03-25T15:35:04Z</time>
      </trkpt>
      <trkpt lat="46.87345" lon="-71.64079">
        <ele>168.84875488281</ele>
        <time>2016-03-25T15:35:30Z</time>
      </trkpt>
      <trkpt lat="46.87326" lon="-71.64068">
        <ele>168.84875488281</ele>
        <time>2016-03-25T15:35:50Z</time>
      </trkpt>
      <trkpt lat="46.87309" lon="-71.64062">
        <ele>168.36804199219</ele>
        <time>2016-03-25T15:36:06Z</time>
      </trkpt>
      <trkpt lat="46.8729" lon="-71.64053">
        <ele>167.88732910156</ele>
        <time>2016-03-25T15:36:26Z</time>
      </trkpt>
      <trkpt lat="46.8727" lon="-71.64042">
        <ele>167.88732910156</ele>
        <time>2016-03-25T15:36:45Z</time>
      </trkpt>
      <trkpt lat="46.87257" lon="-71.64031">
        <ele>167.88732910156</ele>
        <time>2016-03-25T15:37:02Z</time>
      </trkpt>
      <trkpt lat="46.87251" lon="-71.64022">
        <ele>167.88732910156</ele>
        <time>2016-03-25T15:37:17Z</time>
      </trkpt>
      <trkpt lat="46.87244" lon="-71.64012">
        <ele>168.36804199219</ele>
        <time>2016-03-25T15:37:34Z</time>
      </trkpt>
      <trkpt lat="46.87235" lon="-71.64007">
        <ele>169.32946777344</ele>
        <time>2016-03-25T15:37:50Z</time>
      </trkpt>
      <trkpt lat="46.87222" lon="-71.63994">
        <ele>171.73266601562</ele>
        <time>2016-03-25T15:38:08Z</time>
      </trkpt>
      <trkpt lat="46.87212" lon="-71.63983">
        <ele>172.69396972656</ele>
        <time>2016-03-25T15:38:25Z</time>
      </trkpt>
      <trkpt lat="46.87203" lon="-71.63972">
        <ele>173.17468261719</ele>
        <time>2016-03-25T15:38:42Z</time>
      </trkpt>
      <trkpt lat="46.8719" lon="-71.63959">
        <ele>175.57788085938</ele>
        <time>2016-03-25T15:39:02Z</time>
      </trkpt>
      <trkpt lat="46.87174" lon="-71.63949">
        <ele>176.05859375</ele>
        <time>2016-03-25T15:39:22Z</time>
      </trkpt>
      <trkpt lat="46.87162" lon="-71.63936">
        <ele>177.02001953125</ele>
        <time>2016-03-25T15:39:38Z</time>
      </trkpt>
      <trkpt lat="46.8715" lon="-71.63924">
        <ele>177.50061035156</ele>
        <time>2016-03-25T15:39:54Z</time>
      </trkpt>
      <trkpt lat="46.87136" lon="-71.639">
        <ele>178.94262695312</ele>
        <time>2016-03-25T15:40:14Z</time>
      </trkpt>
      <trkpt lat="46.8712" lon="-71.63876">
        <ele>178.4619140625</ele>
        <time>2016-03-25T15:40:36Z</time>
      </trkpt>
      <trkpt lat="46.87105" lon="-71.63851">
        <ele>178.4619140625</ele>
        <time>2016-03-25T15:40:57Z</time>
      </trkpt>
      <trkpt lat="46.87098" lon="-71.63837">
        <ele>178.94262695312</ele>
        <time>2016-03-25T15:41:13Z</time>
      </trkpt>
      <trkpt lat="46.87094" lon="-71.63832">
        <ele>178.4619140625</ele>
        <time>2016-03-25T15:41:26Z</time>
      </trkpt>
      <trkpt lat="46.8709" lon="-71.63825">
        <ele>177.98120117188</ele>
        <time>2016-03-25T15:41:42Z</time>
      </trkpt>
      <trkpt lat="46.8709" lon="-71.63823">
        <ele>177.50061035156</ele>
        <time>2016-03-25T15:41:55Z</time>
      </trkpt>
      <trkpt lat="46.87089" lon="-71.63823">
        <ele>181.34582519531</ele>
        <time>2016-03-25T15:41:59Z</time>
      </trkpt>
      <trkpt lat="46.87089" lon="-71.63823">
        <ele>177.50061035156</ele>
        <time>2016-03-25T15:42:01Z</time>
      </trkpt>
      <trkpt lat="46.87089" lon="-71.63823">
        <ele>177.02001953125</ele>
        <time>2016-03-25T15:42:02Z</time>
      </trkpt>
      <trkpt lat="46.8709" lon="-71.63824">
        <ele>180.38452148438</ele>
        <time>2016-03-25T15:42:05Z</time>
      </trkpt>
      <trkpt lat="46.87089" lon="-71.63824">
        <ele>178.4619140625</ele>
        <time>2016-03-25T15:42:26Z</time>
      </trkpt>
      <trkpt lat="46.87089" lon="-71.63823">
        <ele>180.865234375</ele>
        <time>2016-03-25T15:42:38Z</time>
      </trkpt>
      <trkpt lat="46.87086" lon="-71.63818">
        <ele>178.94262695312</ele>
        <time>2016-03-25T15:42:59Z</time>
      </trkpt>
      <trkpt lat="46.87077" lon="-71.63805">
        <ele>178.94262695312</ele>
        <time>2016-03-25T15:43:17Z</time>
      </trkpt>
      <trkpt lat="46.87067" lon="-71.63791">
        <ele>177.98120117188</ele>
        <time>2016-03-25T15:43:29Z</time>
      </trkpt>
      <trkpt lat="46.87051" lon="-71.6377">
        <ele>177.50061035156</ele>
        <time>2016-03-25T15:43:48Z</time>
      </trkpt>
      <trkpt lat="46.8703" lon="-71.63781">
        <ele>179.42321777344</ele>
        <time>2016-03-25T15:44:09Z</time>
      </trkpt>
      <trkpt lat="46.8701" lon="-71.63796">
        <ele>180.865234375</ele>
        <time>2016-03-25T15:44:29Z</time>
      </trkpt>
      <trkpt lat="46.86988" lon="-71.63811">
        <ele>182.78784179688</ele>
        <time>2016-03-25T15:44:50Z</time>
      </trkpt>
      <trkpt lat="46.86973" lon="-71.63819">
        <ele>181.82641601562</ele>
        <time>2016-03-25T15:45:06Z</time>
      </trkpt>
      <trkpt lat="46.86955" lon="-71.63836">
        <ele>182.78784179688</ele>
        <time>2016-03-25T15:45:25Z</time>
      </trkpt>
      <trkpt lat="46.86938" lon="-71.63858">
        <ele>181.34582519531</ele>
        <time>2016-03-25T15:45:47Z</time>
      </trkpt>
      <trkpt lat="46.86922" lon="-71.6389">
        <ele>180.38452148438</ele>
        <time>2016-03-25T15:46:11Z</time>
      </trkpt>
      <trkpt lat="46.86925" lon="-71.63901">
        <ele>180.38452148438</ele>
        <time>2016-03-25T15:46:20Z</time>
      </trkpt>
      <trkpt lat="46.86938" lon="-71.63924">
        <ele>182.78784179688</ele>
        <time>2016-03-25T15:46:40Z</time>
      </trkpt>
      <trkpt lat="46.86939" lon="-71.63927">
        <ele>183.26843261719</ele>
        <time>2016-03-25T15:46:42Z</time>
      </trkpt>
      <trkpt lat="46.86936" lon="-71.6396">
        <ele>183.7490234375</ele>
        <time>2016-03-25T15:47:03Z</time>
      </trkpt>
      <trkpt lat="46.86934" lon="-71.63996">
        <ele>184.71057128906</ele>
        <time>2016-03-25T15:47:23Z</time>
      </trkpt>
      <trkpt lat="46.86932" lon="-71.64032">
        <ele>186.63317871094</ele>
        <time>2016-03-25T15:47:44Z</time>
      </trkpt>
      <trkpt lat="46.86929" lon="-71.64073">
        <ele>189.51696777344</ele>
        <time>2016-03-25T15:48:07Z</time>
      </trkpt>
      <trkpt lat="46.86927" lon="-71.64106">
        <ele>189.99768066406</ele>
        <time>2016-03-25T15:48:26Z</time>
      </trkpt>
      <trkpt lat="46.86924" lon="-71.64134">
        <ele>189.51696777344</ele>
        <time>2016-03-25T15:48:43Z</time>
      </trkpt>
      <trkpt lat="46.86916" lon="-71.64155">
        <ele>188.07507324219</ele>
        <time>2016-03-25T15:49:00Z</time>
      </trkpt>
      <trkpt lat="46.86914" lon="-71.64159">
        <ele>187.11376953125</ele>
        <time>2016-03-25T15:49:04Z</time>
      </trkpt>
      <trkpt lat="46.86907" lon="-71.64166">
        <ele>187.59436035156</ele>
        <time>2016-03-25T15:49:17Z</time>
      </trkpt>
      <trkpt lat="46.86906" lon="-71.64179">
        <ele>188.55578613281</ele>
        <time>2016-03-25T15:49:32Z</time>
      </trkpt>
      <trkpt lat="46.86906" lon="-71.6418">
        <ele>189.03637695312</ele>
        <time>2016-03-25T15:49:49Z</time>
      </trkpt>
      <trkpt lat="46.86911" lon="-71.64179">
        <ele>188.55578613281</ele>
        <time>2016-03-25T15:50:05Z</time>
      </trkpt>
      <trkpt lat="46.86911" lon="-71.64186">
        <ele>188.07507324219</ele>
        <time>2016-03-25T15:50:18Z</time>
      </trkpt>
      <trkpt lat="46.86914" lon="-71.64183">
        <ele>188.55578613281</ele>
        <time>2016-03-25T15:50:29Z</time>
      </trkpt>
      <trkpt lat="46.86911" lon="-71.64193">
        <ele>185.19116210938</ele>
        <time>2016-03-25T15:50:39Z</time>
      </trkpt>
      <trkpt lat="46.86911" lon="-71.64194">
        <ele>187.11376953125</ele>
        <time>2016-03-25T15:50:40Z</time>
      </trkpt>
      <trkpt lat="46.86912" lon="-71.64192">
        <ele>188.55578613281</ele>
        <time>2016-03-25T15:50:42Z</time>
      </trkpt>
      <trkpt lat="46.86914" lon="-71.64195">
        <ele>188.07507324219</ele>
        <time>2016-03-25T15:50:54Z</time>
      </trkpt>
      <trkpt lat="46.86915" lon="-71.64206">
        <ele>187.11376953125</ele>
        <time>2016-03-25T15:51:16Z</time>
      </trkpt>
      <trkpt lat="46.86912" lon="-71.6421">
        <ele>187.11376953125</ele>
        <time>2016-03-25T15:51:43Z</time>
      </trkpt>
      <trkpt lat="46.86913" lon="-71.64207">
        <ele>186.63317871094</ele>
        <time>2016-03-25T15:52:04Z</time>
      </trkpt>
    </trkseg>
  </trk>
</gpx>